The Eastern Iowa Airport
KCID : rendu visible

Aérodrome :











RETROUVEZ-NOUS SUR...

 
LOGIN :

S'inscrire | Disclaimer

   EN    FR    IT 

 









Légende :    VFR   VFR Marginal   IFR   IFR Intensif   IFR Très Intensif
Visi : 
Plafond : 
>= 8 km
>= 3000ft
5 à 8 km
1000 à 3000 ft
1500m à 5 km
500 à 1000 ft
800 à 1500m
200 à 500 ft
< 800m
< 200 ft
Symboles :   Orages  Brouillard  Fortes neiges  Fortes précipitations  Vent > 20 kt






- Altitude de l'aérodrome : 869 ft
- Code IATA : CID


KCID - The Eastern Iowa

DERNIER METAR :
  • 190152Z 29023G36KT 10SM BKN016 M18/M21 A3017 RMK AO2 PK WND 29037/0128 SLP233 T11781211

METARs EXPIRÉS :
  • 190052Z 29025G34KT 10SM OVC018 M17/M21 A3015 RMK AO2 PK WND 28039/2358 SLP224 T11721206
  • 182352Z 29027G37KT 10SM BKN015 M17/M20 A3011 RMK AO2 PK WND 30039/2338 SLP213 60000 T11671200 11111 21167 51032

TAF KCID
Valide du 19 à 01h jusqu'au 20 à 00h UTC


190034Z 1901/1924 29027G37KT P6SM BKN015
FM190500 30019KT P6SM FEW070
FM191500 31014G22KT P6SM SCT060



MET'MAP, la Météo Aéronautique d'un coup d'oeil ! - Copyright ORBIFLY Décembre 2007 - Disclaimer

ORBIFLY MET'MAP TEAM :

Programmation & Développement : Alexandra Zaïnal
Sur une idée originale de : Baudouin d'Aumeries
Assistance à la programmation : Marc-Olivier Méhu
Soutien technique & logistique : Manuel Goepfert

Contact : metmap@orbifly.com




SOURCES & CREDITS :

   NOAA       Earth
Advisory